sensor_id;sensor_type;location;lat;lon;timestamp;temperature;humidity
12119;DHT22;6123;48.864;9.200;2022-12-20T00:01:28;4.70;99.90
12119;DHT22;6123;48.864;9.200;2022-12-20T00:03:55;4.70;99.90
12119;DHT22;6123;48.864;9.200;2022-12-20T00:06:22;4.70;99.90
12119;DHT22;6123;48.864;9.200;2022-12-20T00:08:56;4.70;99.90
12119;DHT22;6123;48.864;9.200;2022-12-20T00:11:23;4.70;99.90
12119;DHT22;6123;48.864;9.200;2022-12-20T00:13:49;4.70;99.90
12119;DHT22;6123;48.864;9.200;2022-12-20T00:16:17;4.70;99.90
12119;DHT22;6123;48.864;9.200;2022-12-20T00:18:46;4.60;99.90
12119;DHT22;6123;48.864;9.200;2022-12-20T00:21:14;4.60;99.90
12119;DHT22;6123;48.864;9.200;2022-12-20T00:23:40;4.60;99.90
12119;DHT22;6123;48.864;9.200;2022-12-20T00:26:15;4.70;99.90
12119;DHT22;6123;48.864;9.200;2022-12-20T00:28:42;4.70;99.90
12119;DHT22;6123;48.864;9.200;2022-12-20T00:31:12;4.70;99.90
12119;DHT22;6123;48.864;9.200;2022-12-20T00:33:44;4.70;99.90
12119;DHT22;6123;48.864;9.200;2022-12-20T00:36:10;4.70;99.90
12119;DHT22;6123;48.864;9.200;2022-12-20T00:38:36;4.70;99.90
12119;DHT22;6123;48.864;9.200;2022-12-20T00:41:07;4.80;99.90
12119;DHT22;6123;48.864;9.200;2022-12-20T00:43:34;4.80;99.90
12119;DHT22;6123;48.864;9.200;2022-12-20T00:46:00;4.70;99.90
12119;DHT22;6123;48.864;9.200;2022-12-20T00:48:27;4.80;99.90
12119;DHT22;6123;48.864;9.200;2022-12-20T00:50:58;4.80;99.90
12119;DHT22;6123;48.864;9.200;2022-12-20T00:53:24;4.70;99.90
12119;DHT22;6123;48.864;9.200;2022-12-20T00:55:50;4.70;99.90
12119;DHT22;6123;48.864;9.200;2022-12-20T00:58:15;4.70;99.90
12119;DHT22;6123;48.864;9.200;2022-12-20T01:00:41;4.70;99.90
12119;DHT22;6123;48.864;9.200;2022-12-20T01:03:07;4.80;99.90
12119;DHT22;6123;48.864;9.200;2022-12-20T01:05:36;4.60;99.90
12119;DHT22;6123;48.864;9.200;2022-12-20T01:08:02;4.70;99.90
12119;DHT22;6123;48.864;9.200;2022-12-20T01:10:28;4.70;99.90
12119;DHT22;6123;48.864;9.200;2022-12-20T01:12:56;4.60;99.90
12119;DHT22;6123;48.864;9.200;2022-12-20T01:15:21;4.60;99.90
12119;DHT22;6123;48.864;9.200;2022-12-20T01:17:47;4.60;99.90
12119;DHT22;6123;48.864;9.200;2022-12-20T01:20:13;4.50;99.90
12119;DHT22;6123;48.864;9.200;2022-12-20T01:22:38;4.50;99.90
12119;DHT22;6123;48.864;9.200;2022-12-20T01:25:04;4.50;99.90
12119;DHT22;6123;48.864;9.200;2022-12-20T01:27:30;4.50;99.90
12119;DHT22;6123;48.864;9.200;2022-12-20T01:29:56;4.50;99.90
12119;DHT22;6123;48.864;9.200;2022-12-20T01:32:24;4.40;99.90
12119;DHT22;6123;48.864;9.200;2022-12-20T01:34:49;4.30;99.90
12119;DHT22;6123;48.864;9.200;2022-12-20T01:37:20;4.40;99.90
12119;DHT22;6123;48.864;9.200;2022-12-20T01:39:45;4.40;99.90
12119;DHT22;6123;48.864;9.200;2022-12-20T01:42:14;4.40;99.90
12119;DHT22;6123;48.864;9.200;2022-12-20T01:47:09;4.50;99.90
12119;DHT22;6123;48.864;9.200;2022-12-20T01:49:43;4.50;99.90
12119;DHT22;6123;48.864;9.200;2022-12-20T01:52:15;4.50;99.90
12119;DHT22;6123;48.864;9.200;2022-12-20T01:55:10;4.50;99.90
12119;DHT22;6123;48.864;9.200;2022-12-20T01:57:41;4.50;99.90
12119;DHT22;6123;48.864;9.200;2022-12-20T02:00:10;4.60;99.90
12119;DHT22;6123;48.864;9.200;2022-12-20T02:02:36;4.50;99.90
12119;DHT22;6123;48.864;9.200;2022-12-20T02:05:02;4.50;99.90
12119;DHT22;6123;48.864;9.200;2022-12-20T02:07:33;4.40;99.90
12119;DHT22;6123;48.864;9.200;2022-12-20T02:10:01;4.40;99.90
12119;DHT22;6123;48.864;9.200;2022-12-20T02:12:37;4.30;99.90
12119;DHT22;6123;48.864;9.200;2022-12-20T02:15:20;4.30;99.90
12119;DHT22;6123;48.864;9.200;2022-12-20T02:18:03;4.30;99.90
12119;DHT22;6123;48.864;9.200;2022-12-20T02:31:40;4.30;99.90
12119;DHT22;6123;48.864;9.200;2022-12-20T02:34:08;4.40;99.90
12119;DHT22;6123;48.864;9.200;2022-12-20T02:36:34;4.30;99.90
12119;DHT22;6123;48.864;9.200;2022-12-20T02:39:00;4.30;99.90
12119;DHT22;6123;48.864;9.200;2022-12-20T02:41:33;4.30;99.90
12119;DHT22;6123;48.864;9.200;2022-12-20T02:44:09;4.20;99.90
12119;DHT22;6123;48.864;9.200;2022-12-20T02:46:55;4.30;99.90
12119;DHT22;6123;48.864;9.200;2022-12-20T02:49:27;4.30;99.90
12119;DHT22;6123;48.864;9.200;2022-12-20T02:51:54;4.30;99.90
12119;DHT22;6123;48.864;9.200;2022-12-20T02:54:21;4.20;99.90
12119;DHT22;6123;48.864;9.200;2022-12-20T02:56:59;4.40;99.90
12119;DHT22;6123;48.864;9.200;2022-12-20T02:59:34;4.30;99.90
12119;DHT22;6123;48.864;9.200;2022-12-20T03:02:01;4.30;99.90
12119;DHT22;6123;48.864;9.200;2022-12-20T03:04:29;4.30;99.90
12119;DHT22;6123;48.864;9.200;2022-12-20T03:07:06;4.20;99.90
12119;DHT22;6123;48.864;9.200;2022-12-20T03:09:34;4.40;99.90
12119;DHT22;6123;48.864;9.200;2022-12-20T03:12:01;4.40;99.90
12119;DHT22;6123;48.864;9.200;2022-12-20T03:14:27;4.50;99.90
12119;DHT22;6123;48.864;9.200;2022-12-20T03:16:52;4.40;99.90
12119;DHT22;6123;48.864;9.200;2022-12-20T03:19:21;4.40;99.90
12119;DHT22;6123;48.864;9.200;2022-12-20T03:21:47;4.40;99.90
12119;DHT22;6123;48.864;9.200;2022-12-20T03:24:14;4.40;99.90
12119;DHT22;6123;48.864;9.200;2022-12-20T03:26:41;4.50;99.90
12119;DHT22;6123;48.864;9.200;2022-12-20T03:29:07;4.50;99.90
12119;DHT22;6123;48.864;9.200;2022-12-20T03:31:32;4.40;99.90
12119;DHT22;6123;48.864;9.200;2022-12-20T03:34:01;4.30;99.90
12119;DHT22;6123;48.864;9.200;2022-12-20T03:36:29;4.30;99.90
12119;DHT22;6123;48.864;9.200;2022-12-20T03:38:58;4.30;99.90
12119;DHT22;6123;48.864;9.200;2022-12-20T03:41:24;4.40;99.90
12119;DHT22;6123;48.864;9.200;2022-12-20T03:43:52;4.40;99.90
12119;DHT22;6123;48.864;9.200;2022-12-20T03:46:20;4.50;99.90
12119;DHT22;6123;48.864;9.200;2022-12-20T03:48:46;4.60;99.90
12119;DHT22;6123;48.864;9.200;2022-12-20T03:51:11;4.70;99.90
12119;DHT22;6123;48.864;9.200;2022-12-20T03:53:37;4.70;99.90
12119;DHT22;6123;48.864;9.200;2022-12-20T03:56:05;4.80;99.90
12119;DHT22;6123;48.864;9.200;2022-12-20T03:58:31;4.80;99.90
12119;DHT22;6123;48.864;9.200;2022-12-20T04:00:59;4.80;99.90
12119;DHT22;6123;48.864;9.200;2022-12-20T04:03:26;4.80;99.90
12119;DHT22;6123;48.864;9.200;2022-12-20T04:05:51;4.90;99.90
12119;DHT22;6123;48.864;9.200;2022-12-20T04:08:17;4.90;99.90
12119;DHT22;6123;48.864;9.200;2022-12-20T04:10:45;4.90;99.90
12119;DHT22;6123;48.864;9.200;2022-12-20T04:13:29;4.90;99.90
12119;DHT22;6123;48.864;9.200;2022-12-20T04:15:54;5.00;99.90
12119;DHT22;6123;48.864;9.200;2022-12-20T04:18:20;5.00;99.90
12119;DHT22;6123;48.864;9.200;2022-12-20T04:20:52;5.00;99.90
12119;DHT22;6123;48.864;9.200;2022-12-20T04:23:17;5.10;99.90
12119;DHT22;6123;48.864;9.200;2022-12-20T04:25:45;5.10;99.90
12119;DHT22;6123;48.864;9.200;2022-12-20T04:28:11;5.10;99.90
12119;DHT22;6123;48.864;9.200;2022-12-20T04:30:36;5.10;99.90
12119;DHT22;6123;48.864;9.200;2022-12-20T04:33:02;5.10;99.90
12119;DHT22;6123;48.864;9.200;2022-12-20T04:35:28;5.20;99.90
12119;DHT22;6123;48.864;9.200;2022-12-20T04:37:56;5.20;99.90
12119;DHT22;6123;48.864;9.200;2022-12-20T04:40:22;5.20;99.90
12119;DHT22;6123;48.864;9.200;2022-12-20T04:42:50;5.30;99.90
12119;DHT22;6123;48.864;9.200;2022-12-20T04:45:16;5.20;99.90
12119;DHT22;6123;48.864;9.200;2022-12-20T04:47:41;5.20;99.90
12119;DHT22;6123;48.864;9.200;2022-12-20T04:50:09;5.20;99.90
12119;DHT22;6123;48.864;9.200;2022-12-20T04:52:34;5.20;99.90
12119;DHT22;6123;48.864;9.200;2022-12-20T04:55:22;5.20;99.90
12119;DHT22;6123;48.864;9.200;2022-12-20T04:57:47;5.20;99.90
12119;DHT22;6123;48.864;9.200;2022-12-20T05:00:14;5.30;99.90
12119;DHT22;6123;48.864;9.200;2022-12-20T05:02:42;5.20;99.90
12119;DHT22;6123;48.864;9.200;2022-12-20T05:05:07;5.30;99.90
12119;DHT22;6123;48.864;9.200;2022-12-20T05:07:35;5.30;99.90
12119;DHT22;6123;48.864;9.200;2022-12-20T05:10:01;5.30;99.90
12119;DHT22;6123;48.864;9.200;2022-12-20T05:12:26;5.30;99.90
12119;DHT22;6123;48.864;9.200;2022-12-20T05:14:54;5.40;99.90
12119;DHT22;6123;48.864;9.200;2022-12-20T05:17:20;5.40;99.90
12119;DHT22;6123;48.864;9.200;2022-12-20T05:19:46;5.30;99.90
12119;DHT22;6123;48.864;9.200;2022-12-20T05:22:12;5.30;99.90
12119;DHT22;6123;48.864;9.200;2022-12-20T05:24:58;5.30;99.90
12119;DHT22;6123;48.864;9.200;2022-12-20T05:27:42;5.40;99.90
12119;DHT22;6123;48.864;9.200;2022-12-20T05:30:10;5.40;99.90
12119;DHT22;6123;48.864;9.200;2022-12-20T05:32:36;5.50;99.90
12119;DHT22;6123;48.864;9.200;2022-12-20T05:35:02;5.60;99.90
12119;DHT22;6123;48.864;9.200;2022-12-20T05:37:27;5.60;99.90
12119;DHT22;6123;48.864;9.200;2022-12-20T05:39:53;5.70;99.90
12119;DHT22;6123;48.864;9.200;2022-12-20T05:42:19;5.60;99.90
12119;DHT22;6123;48.864;9.200;2022-12-20T05:44:45;5.60;99.90
12119;DHT22;6123;48.864;9.200;2022-12-20T05:47:10;5.50;99.90
12119;DHT22;6123;48.864;9.200;2022-12-20T05:49:38;5.60;99.90
12119;DHT22;6123;48.864;9.200;2022-12-20T05:52:07;5.60;99.90
12119;DHT22;6123;48.864;9.200;2022-12-20T05:54:32;5.60;99.90
12119;DHT22;6123;48.864;9.200;2022-12-20T05:56:58;5.50;99.90
12119;DHT22;6123;48.864;9.200;2022-12-20T05:59:23;5.60;99.90
12119;DHT22;6123;48.864;9.200;2022-12-20T06:01:49;5.60;99.90
12119;DHT22;6123;48.864;9.200;2022-12-20T06:04:15;5.60;99.90
12119;DHT22;6123;48.864;9.200;2022-12-20T06:06:40;5.60;99.90
12119;DHT22;6123;48.864;9.200;2022-12-20T06:09:06;5.50;99.90
12119;DHT22;6123;48.864;9.200;2022-12-20T06:11:31;5.60;99.90
12119;DHT22;6123;48.864;9.200;2022-12-20T06:13:58;5.60;99.90
12119;DHT22;6123;48.864;9.200;2022-12-20T06:16:26;5.60;99.90
12119;DHT22;6123;48.864;9.200;2022-12-20T06:18:51;5.60;99.90
12119;DHT22;6123;48.864;9.200;2022-12-20T06:21:19;5.60;99.90
12119;DHT22;6123;48.864;9.200;2022-12-20T06:23:45;5.60;99.90
12119;DHT22;6123;48.864;9.200;2022-12-20T06:26:10;5.60;99.90
12119;DHT22;6123;48.864;9.200;2022-12-20T06:28:36;5.70;99.90
12119;DHT22;6123;48.864;9.200;2022-12-20T06:31:09;5.80;99.90
12119;DHT22;6123;48.864;9.200;2022-12-20T06:33:35;5.80;99.90
12119;DHT22;6123;48.864;9.200;2022-12-20T06:36:01;5.80;99.90
12119;DHT22;6123;48.864;9.200;2022-12-20T06:38:26;5.80;99.90
12119;DHT22;6123;48.864;9.200;2022-12-20T06:40:52;5.70;99.90
12119;DHT22;6123;48.864;9.200;2022-12-20T06:43:20;5.70;99.90
12119;DHT22;6123;48.864;9.200;2022-12-20T06:45:48;5.60;99.90
12119;DHT22;6123;48.864;9.200;2022-12-20T06:48:14;5.60;99.90
12119;DHT22;6123;48.864;9.200;2022-12-20T06:50:39;5.60;99.90
12119;DHT22;6123;48.864;9.200;2022-12-20T06:53:05;5.60;99.90
12119;DHT22;6123;48.864;9.200;2022-12-20T06:55:31;5.70;99.90
12119;DHT22;6123;48.864;9.200;2022-12-20T06:57:56;5.70;99.90
12119;DHT22;6123;48.864;9.200;2022-12-20T07:00:22;5.60;99.90
12119;DHT22;6123;48.864;9.200;2022-12-20T07:02:50;5.50;99.90
12119;DHT22;6123;48.864;9.200;2022-12-20T07:05:16;5.50;99.90
12119;DHT22;6123;48.864;9.200;2022-12-20T07:07:41;5.30;99.90
12119;DHT22;6123;48.864;9.200;2022-12-20T07:10:07;5.30;99.90
12119;DHT22;6123;48.864;9.200;2022-12-20T07:12:33;5.20;99.90
12119;DHT22;6123;48.864;9.200;2022-12-20T07:14:59;5.10;99.90
12119;DHT22;6123;48.864;9.200;2022-12-20T07:17:27;5.20;99.90
12119;DHT22;6123;48.864;9.200;2022-12-20T07:19:55;5.10;99.90
12119;DHT22;6123;48.864;9.200;2022-12-20T07:22:20;5.00;99.90
12119;DHT22;6123;48.864;9.200;2022-12-20T07:24:46;5.00;99.90
12119;DHT22;6123;48.864;9.200;2022-12-20T07:27:14;5.10;99.90
12119;DHT22;6123;48.864;9.200;2022-12-20T07:29:40;5.10;99.90
12119;DHT22;6123;48.864;9.200;2022-12-20T07:32:06;5.00;99.90
12119;DHT22;6123;48.864;9.200;2022-12-20T07:34:32;5.00;99.90
12119;DHT22;6123;48.864;9.200;2022-12-20T07:37:00;5.00;99.90
12119;DHT22;6123;48.864;9.200;2022-12-20T07:39:28;5.00;99.90
12119;DHT22;6123;48.864;9.200;2022-12-20T07:41:54;5.10;99.90
12119;DHT22;6123;48.864;9.200;2022-12-20T07:44:21;5.00;99.90
12119;DHT22;6123;48.864;9.200;2022-12-20T07:46:51;4.90;99.90
12119;DHT22;6123;48.864;9.200;2022-12-20T07:49:19;4.80;99.90
12119;DHT22;6123;48.864;9.200;2022-12-20T07:51:48;4.90;99.90
12119;DHT22;6123;48.864;9.200;2022-12-20T07:54:19;5.00;99.90
12119;DHT22;6123;48.864;9.200;2022-12-20T07:56:49;5.00;99.90
12119;DHT22;6123;48.864;9.200;2022-12-20T07:59:22;5.10;99.90
12119;DHT22;6123;48.864;9.200;2022-12-20T08:01:48;5.10;99.90
12119;DHT22;6123;48.864;9.200;2022-12-20T08:04:22;5.20;99.90
12119;DHT22;6123;48.864;9.200;2022-12-20T08:06:49;5.20;99.90
12119;DHT22;6123;48.864;9.200;2022-12-20T08:09:17;5.40;99.90
12119;DHT22;6123;48.864;9.200;2022-12-20T08:11:46;5.50;99.90
12119;DHT22;6123;48.864;9.200;2022-12-20T08:14:16;5.60;99.90
12119;DHT22;6123;48.864;9.200;2022-12-20T08:16:42;5.80;99.90
12119;DHT22;6123;48.864;9.200;2022-12-20T08:19:08;6.00;99.90
12119;DHT22;6123;48.864;9.200;2022-12-20T08:21:34;6.10;99.90
12119;DHT22;6123;48.864;9.200;2022-12-20T08:24:00;6.10;99.90
12119;DHT22;6123;48.864;9.200;2022-12-20T08:26:25;6.20;99.90
12119;DHT22;6123;48.864;9.200;2022-12-20T08:28:52;6.20;99.90
12119;DHT22;6123;48.864;9.200;2022-12-20T08:31:18;6.20;99.90
12119;DHT22;6123;48.864;9.200;2022-12-20T08:33:44;6.20;99.90
12119;DHT22;6123;48.864;9.200;2022-12-20T08:36:12;6.30;99.90
12119;DHT22;6123;48.864;9.200;2022-12-20T08:38:39;6.10;99.90
12119;DHT22;6123;48.864;9.200;2022-12-20T08:41:08;5.80;99.90
12119;DHT22;6123;48.864;9.200;2022-12-20T08:43:35;5.70;99.90
12119;DHT22;6123;48.864;9.200;2022-12-20T08:46:02;5.70;99.90
12119;DHT22;6123;48.864;9.200;2022-12-20T08:48:28;5.90;99.90
12119;DHT22;6123;48.864;9.200;2022-12-20T08:50:58;6.20;99.90
12119;DHT22;6123;48.864;9.200;2022-12-20T08:53:26;6.40;99.90
12119;DHT22;6123;48.864;9.200;2022-12-20T08:55:52;6.40;99.90
12119;DHT22;6123;48.864;9.200;2022-12-20T08:58:20;6.50;99.90
12119;DHT22;6123;48.864;9.200;2022-12-20T09:00:48;6.70;99.90
12119;DHT22;6123;48.864;9.200;2022-12-20T09:03:13;6.70;99.90
12119;DHT22;6123;48.864;9.200;2022-12-20T09:05:46;6.80;99.90
12119;DHT22;6123;48.864;9.200;2022-12-20T09:08:13;6.90;99.90
12119;DHT22;6123;48.864;9.200;2022-12-20T09:10:38;7.00;99.90
12119;DHT22;6123;48.864;9.200;2022-12-20T09:13:07;7.10;99.90
12119;DHT22;6123;48.864;9.200;2022-12-20T09:15:36;7.10;99.90
12119;DHT22;6123;48.864;9.200;2022-12-20T09:18:02;7.10;99.90
12119;DHT22;6123;48.864;9.200;2022-12-20T09:20:28;7.20;99.90
12119;DHT22;6123;48.864;9.200;2022-12-20T09:22:57;7.30;99.90
12119;DHT22;6123;48.864;9.200;2022-12-20T09:25:24;7.30;99.90
12119;DHT22;6123;48.864;9.200;2022-12-20T09:27:53;7.30;99.90
12119;DHT22;6123;48.864;9.200;2022-12-20T09:30:22;7.30;99.90
12119;DHT22;6123;48.864;9.200;2022-12-20T09:32:50;7.30;99.90
12119;DHT22;6123;48.864;9.200;2022-12-20T09:35:16;7.40;99.90
12119;DHT22;6123;48.864;9.200;2022-12-20T09:37:44;7.30;99.90
12119;DHT22;6123;48.864;9.200;2022-12-20T09:40:21;7.30;99.90
12119;DHT22;6123;48.864;9.200;2022-12-20T09:42:49;7.20;99.90
12119;DHT22;6123;48.864;9.200;2022-12-20T09:45:27;7.20;99.90
12119;DHT22;6123;48.864;9.200;2022-12-20T09:47:56;7.20;99.90
12119;DHT22;6123;48.864;9.200;2022-12-20T09:53:58;7.30;99.90
12119;DHT22;6123;48.864;9.200;2022-12-20T09:56:44;7.30;99.90
12119;DHT22;6123;48.864;9.200;2022-12-20T10:01:48;7.40;99.90
12119;DHT22;6123;48.864;9.200;2022-12-20T10:04:25;7.40;99.90
12119;DHT22;6123;48.864;9.200;2022-12-20T10:15:17;7.70;99.90
12119;DHT22;6123;48.864;9.200;2022-12-20T10:21:16;7.70;99.90
12119;DHT22;6123;48.864;9.200;2022-12-20T10:24:02;7.70;99.90
12119;DHT22;6123;48.864;9.200;2022-12-20T10:26:32;7.70;99.90
12119;DHT22;6123;48.864;9.200;2022-12-20T10:28:58;7.80;99.90
12119;DHT22;6123;48.864;9.200;2022-12-20T10:31:23;7.80;99.90
12119;DHT22;6123;48.864;9.200;2022-12-20T10:33:50;8.00;99.90
12119;DHT22;6123;48.864;9.200;2022-12-20T10:38:52;8.10;99.90
12119;DHT22;6123;48.864;9.200;2022-12-20T10:41:21;8.20;99.90
12119;DHT22;6123;48.864;9.200;2022-12-20T10:43:53;8.20;99.90
12119;DHT22;6123;48.864;9.200;2022-12-20T10:46:20;8.20;99.90
12119;DHT22;6123;48.864;9.200;2022-12-20T10:48:48;8.10;99.90
12119;DHT22;6123;48.864;9.200;2022-12-20T10:51:17;8.20;99.90
12119;DHT22;6123;48.864;9.200;2022-12-20T10:53:54;8.20;99.90
12119;DHT22;6123;48.864;9.200;2022-12-20T10:56:25;8.30;99.90
12119;DHT22;6123;48.864;9.200;2022-12-20T10:58:59;8.30;99.90
12119;DHT22;6123;48.864;9.200;2022-12-20T11:01:32;8.40;99.90
12119;DHT22;6123;48.864;9.200;2022-12-20T11:04:05;8.30;99.90
12119;DHT22;6123;48.864;9.200;2022-12-20T11:09:33;8.40;99.90
12119;DHT22;6123;48.864;9.200;2022-12-20T11:14:28;8.40;99.90
12119;DHT22;6123;48.864;9.200;2022-12-20T11:16:56;8.50;99.90
12119;DHT22;6123;48.864;9.200;2022-12-20T11:25:42;8.50;99.90
12119;DHT22;6123;48.864;9.200;2022-12-20T11:30:34;8.50;99.90
12119;DHT22;6123;48.864;9.200;2022-12-20T11:35:59;8.50;99.90
12119;DHT22;6123;48.864;9.200;2022-12-20T11:53:51;8.60;99.90
12119;DHT22;6123;48.864;9.200;2022-12-20T11:56:41;8.70;99.90
12119;DHT22;6123;48.864;9.200;2022-12-20T11:59:19;8.60;99.90
12119;DHT22;6123;48.864;9.200;2022-12-20T12:01:55;8.50;99.90
12119;DHT22;6123;48.864;9.200;2022-12-20T12:04:29;8.40;99.90
12119;DHT22;6123;48.864;9.200;2022-12-20T12:07:09;8.40;99.90
12119;DHT22;6123;48.864;9.200;2022-12-20T12:09:59;8.40;99.90
12119;DHT22;6123;48.864;9.200;2022-12-20T12:12:33;8.50;99.90
12119;DHT22;6123;48.864;9.200;2022-12-20T12:15:15;8.60;99.90
12119;DHT22;6123;48.864;9.200;2022-12-20T12:23:22;8.50;99.90
12119;DHT22;6123;48.864;9.200;2022-12-20T12:25:51;8.50;99.90
12119;DHT22;6123;48.864;9.200;2022-12-20T12:28:21;8.50;99.90
12119;DHT22;6123;48.864;9.200;2022-12-20T12:30:55;8.40;99.90
12119;DHT22;6123;48.864;9.200;2022-12-20T12:33:27;8.50;99.90
12119;DHT22;6123;48.864;9.200;2022-12-20T12:44:21;8.80;99.90
12119;DHT22;6123;48.864;9.200;2022-12-20T12:46:57;8.80;99.90
12119;DHT22;6123;48.864;9.200;2022-12-20T12:49:26;8.80;99.90
12119;DHT22;6123;48.864;9.200;2022-12-20T12:51:56;8.90;99.90
12119;DHT22;6123;48.864;9.200;2022-12-20T12:54:38;8.90;99.90
12119;DHT22;6123;48.864;9.200;2022-12-20T12:57:16;8.90;99.90
12119;DHT22;6123;48.864;9.200;2022-12-20T13:04:54;9.10;99.90
12119;DHT22;6123;48.864;9.200;2022-12-20T13:17:56;9.30;99.90
12119;DHT22;6123;48.864;9.200;2022-12-20T13:20:27;9.20;99.90
12119;DHT22;6123;48.864;9.200;2022-12-20T13:33:50;9.20;99.90
12119;DHT22;6123;48.864;9.200;2022-12-20T13:36:34;9.10;99.90
12119;DHT22;6123;48.864;9.200;2022-12-20T13:39:36;9.00;99.90
12119;DHT22;6123;48.864;9.200;2022-12-20T13:42:22;9.00;99.90
12119;DHT22;6123;48.864;9.200;2022-12-20T13:44:53;8.90;99.90
12119;DHT22;6123;48.864;9.200;2022-12-20T13:47:25;9.00;99.90
12119;DHT22;6123;48.864;9.200;2022-12-20T13:49:52;9.00;99.90
12119;DHT22;6123;48.864;9.200;2022-12-20T13:52:26;9.00;99.90
12119;DHT22;6123;48.864;9.200;2022-12-20T13:54:59;8.50;99.90
12119;DHT22;6123;48.864;9.200;2022-12-20T13:57:32;9.10;99.90
12119;DHT22;6123;48.864;9.200;2022-12-20T14:00:05;9.20;99.90
12119;DHT22;6123;48.864;9.200;2022-12-20T14:02:40;9.30;99.90
12119;DHT22;6123;48.864;9.200;2022-12-20T14:05:32;9.30;99.90
12119;DHT22;6123;48.864;9.200;2022-12-20T14:08:05;9.20;99.90
12119;DHT22;6123;48.864;9.200;2022-12-20T14:10:33;9.20;99.90
12119;DHT22;6123;48.864;9.200;2022-12-20T14:12:59;9.30;99.90
12119;DHT22;6123;48.864;9.200;2022-12-20T14:15:34;9.30;99.90
12119;DHT22;6123;48.864;9.200;2022-12-20T14:18:20;9.30;99.90
12119;DHT22;6123;48.864;9.200;2022-12-20T14:20:48;9.40;99.90
12119;DHT22;6123;48.864;9.200;2022-12-20T14:23:18;9.40;99.90
12119;DHT22;6123;48.864;9.200;2022-12-20T14:25:56;9.40;99.90
12119;DHT22;6123;48.864;9.200;2022-12-20T14:31:01;9.50;99.90
12119;DHT22;6123;48.864;9.200;2022-12-20T14:33:37;9.40;99.90
12119;DHT22;6123;48.864;9.200;2022-12-20T14:38:40;9.40;99.90
12119;DHT22;6123;48.864;9.200;2022-12-20T14:41:36;9.40;99.90
12119;DHT22;6123;48.864;9.200;2022-12-20T14:44:15;9.40;99.90
12119;DHT22;6123;48.864;9.200;2022-12-20T14:46:50;9.50;99.90
12119;DHT22;6123;48.864;9.200;2022-12-20T14:49:24;9.30;99.90
12119;DHT22;6123;48.864;9.200;2022-12-20T14:51:51;9.30;99.90
12119;DHT22;6123;48.864;9.200;2022-12-20T14:56:48;9.30;99.90
12119;DHT22;6123;48.864;9.200;2022-12-20T14:59:24;9.20;99.90
12119;DHT22;6123;48.864;9.200;2022-12-20T15:01:50;9.10;99.90
12119;DHT22;6123;48.864;9.200;2022-12-20T15:04:29;9.00;99.90
12119;DHT22;6123;48.864;9.200;2022-12-20T15:06:56;9.00;99.90
12119;DHT22;6123;48.864;9.200;2022-12-20T15:09:22;9.00;99.90
12119;DHT22;6123;48.864;9.200;2022-12-20T15:11:48;8.90;99.90
12119;DHT22;6123;48.864;9.200;2022-12-20T15:14:36;9.00;99.90
12119;DHT22;6123;48.864;9.200;2022-12-20T15:17:22;8.90;99.90
12119;DHT22;6123;48.864;9.200;2022-12-20T15:19:50;9.00;99.90
12119;DHT22;6123;48.864;9.200;2022-12-20T15:22:17;8.90;99.90
12119;DHT22;6123;48.864;9.200;2022-12-20T15:24:43;8.80;99.90
12119;DHT22;6123;48.864;9.200;2022-12-20T15:27:14;8.90;99.90
12119;DHT22;6123;48.864;9.200;2022-12-20T15:29:42;8.80;99.90
12119;DHT22;6123;48.864;9.200;2022-12-20T15:32:23;8.90;99.90
12119;DHT22;6123;48.864;9.200;2022-12-20T15:34:50;8.80;99.90
12119;DHT22;6123;48.864;9.200;2022-12-20T15:37:15;8.90;99.90
12119;DHT22;6123;48.864;9.200;2022-12-20T15:39:41;9.00;99.90
12119;DHT22;6123;48.864;9.200;2022-12-20T15:42:13;8.90;99.90
12119;DHT22;6123;48.864;9.200;2022-12-20T15:44:40;8.80;99.90
12119;DHT22;6123;48.864;9.200;2022-12-20T15:47:12;8.90;99.90
12119;DHT22;6123;48.864;9.200;2022-12-20T15:49:38;8.80;99.90
12119;DHT22;6123;48.864;9.200;2022-12-20T15:52:03;8.80;99.90
12119;DHT22;6123;48.864;9.200;2022-12-20T15:54:34;8.80;99.90
12119;DHT22;6123;48.864;9.200;2022-12-20T15:57:03;8.80;99.90
12119;DHT22;6123;48.864;9.200;2022-12-20T15:59:32;8.80;99.90
12119;DHT22;6123;48.864;9.200;2022-12-20T16:01:57;8.90;99.90
12119;DHT22;6123;48.864;9.200;2022-12-20T16:04:23;8.80;99.90
12119;DHT22;6123;48.864;9.200;2022-12-20T16:06:53;8.80;99.90
12119;DHT22;6123;48.864;9.200;2022-12-20T16:09:21;9.00;99.90
12119;DHT22;6123;48.864;9.200;2022-12-20T16:11:50;8.70;99.90
12119;DHT22;6123;48.864;9.200;2022-12-20T16:14:19;8.70;99.90
12119;DHT22;6123;48.864;9.200;2022-12-20T16:16:48;8.70;99.90
12119;DHT22;6123;48.864;9.200;2022-12-20T16:19:14;8.70;99.90
12119;DHT22;6123;48.864;9.200;2022-12-20T16:21:46;8.70;99.90
12119;DHT22;6123;48.864;9.200;2022-12-20T16:24:14;8.60;99.90
12119;DHT22;6123;48.864;9.200;2022-12-20T16:26:40;8.60;99.90
12119;DHT22;6123;48.864;9.200;2022-12-20T16:29:07;8.50;99.90
12119;DHT22;6123;48.864;9.200;2022-12-20T16:31:35;8.50;99.90
12119;DHT22;6123;48.864;9.200;2022-12-20T16:34:04;8.40;99.90
12119;DHT22;6123;48.864;9.200;2022-12-20T16:36:30;8.40;99.90
12119;DHT22;6123;48.864;9.200;2022-12-20T16:38:56;8.50;99.90
12119;DHT22;6123;48.864;9.200;2022-12-20T16:41:24;8.50;99.90
12119;DHT22;6123;48.864;9.200;2022-12-20T16:43:53;8.50;99.90
12119;DHT22;6123;48.864;9.200;2022-12-20T16:46:21;8.50;99.90
12119;DHT22;6123;48.864;9.200;2022-12-20T16:48:47;8.50;99.90
12119;DHT22;6123;48.864;9.200;2022-12-20T16:51:37;8.60;99.90
12119;DHT22;6123;48.864;9.200;2022-12-20T16:54:06;8.60;99.90
12119;DHT22;6123;48.864;9.200;2022-12-20T16:56:32;8.60;99.90
12119;DHT22;6123;48.864;9.200;2022-12-20T16:59:00;8.60;99.90
12119;DHT22;6123;48.864;9.200;2022-12-20T17:01:30;8.70;99.90
12119;DHT22;6123;48.864;9.200;2022-12-20T17:03:56;8.70;99.90
12119;DHT22;6123;48.864;9.200;2022-12-20T17:06:22;8.70;99.90
12119;DHT22;6123;48.864;9.200;2022-12-20T17:08:50;8.60;99.90
12119;DHT22;6123;48.864;9.200;2022-12-20T17:13:44;8.60;99.90
12119;DHT22;6123;48.864;9.200;2022-12-20T17:16:14;8.50;99.90
12119;DHT22;6123;48.864;9.200;2022-12-20T17:18:44;8.50;99.90
12119;DHT22;6123;48.864;9.200;2022-12-20T17:21:41;8.50;99.90
12119;DHT22;6123;48.864;9.200;2022-12-20T17:24:19;8.40;99.90
12119;DHT22;6123;48.864;9.200;2022-12-20T17:26:46;8.40;99.90
12119;DHT22;6123;48.864;9.200;2022-12-20T17:29:15;8.40;99.90
12119;DHT22;6123;48.864;9.200;2022-12-20T17:31:43;8.40;99.90
12119;DHT22;6123;48.864;9.200;2022-12-20T17:34:18;8.40;99.90
12119;DHT22;6123;48.864;9.200;2022-12-20T17:36:45;8.40;99.90
12119;DHT22;6123;48.864;9.200;2022-12-20T17:39:11;8.30;99.90
12119;DHT22;6123;48.864;9.200;2022-12-20T17:41:36;8.30;99.90
12119;DHT22;6123;48.864;9.200;2022-12-20T17:44:04;8.40;99.90
12119;DHT22;6123;48.864;9.200;2022-12-20T17:46:30;8.40;99.90
12119;DHT22;6123;48.864;9.200;2022-12-20T17:48:56;8.40;99.90
12119;DHT22;6123;48.864;9.200;2022-12-20T17:53:53;8.40;99.90
12119;DHT22;6123;48.864;9.200;2022-12-20T17:56:22;8.50;99.90
12119;DHT22;6123;48.864;9.200;2022-12-20T17:58:48;8.50;99.90
12119;DHT22;6123;48.864;9.200;2022-12-20T18:01:21;8.50;99.90
12119;DHT22;6123;48.864;9.200;2022-12-20T18:03:48;8.50;99.90
12119;DHT22;6123;48.864;9.200;2022-12-20T18:06:14;8.60;99.90
12119;DHT22;6123;48.864;9.200;2022-12-20T18:08:40;8.50;99.90
12119;DHT22;6123;48.864;9.200;2022-12-20T18:11:09;8.60;99.90
12119;DHT22;6123;48.864;9.200;2022-12-20T18:13:35;8.70;99.90
12119;DHT22;6123;48.864;9.200;2022-12-20T18:16:07;8.80;99.90